createdAt,value
2019-05-25T00:02:14.775Z,2.00
2019-05-25T00:04:44.417Z,2.43
2019-05-25T00:07:14.035Z,2.10
2019-05-25T00:09:43.616Z,2.37
2019-05-25T00:12:13.260Z,2.53
2019-05-25T00:14:43.261Z,2.30
2019-05-25T00:17:12.812Z,3.00
2019-05-25T00:19:42.302Z,2.47
2019-05-25T00:22:11.885Z,2.73
2019-05-25T00:24:41.500Z,2.50
2019-05-25T00:27:11.005Z,2.40
2019-05-25T00:29:40.530Z,2.30
2019-05-25T00:32:10.164Z,2.30
2019-05-25T00:34:39.744Z,2.80
2019-05-25T00:37:09.526Z,2.57
2019-05-25T00:39:39.128Z,2.50
2019-05-25T00:42:08.635Z,2.80
2019-05-25T00:44:38.241Z,2.50
2019-05-25T00:47:07.835Z,2.53
2019-05-25T00:49:37.460Z,3.17
2019-05-25T00:52:07.048Z,2.80
2019-05-25T00:54:37.839Z,2.37
2019-05-25T00:57:07.395Z,2.83
2019-05-25T00:59:37.189Z,3.13
2019-05-25T01:02:11.179Z,2.83
2019-05-25T01:04:40.785Z,3.23
2019-05-25T01:07:10.418Z,3.17
2019-05-25T01:09:39.939Z,2.90
2019-05-25T01:12:09.497Z,2.93
2019-05-25T01:14:41.943Z,3.10
2019-05-25T01:17:11.525Z,2.77
2019-05-25T01:19:41.104Z,2.73
2019-05-25T01:22:10.627Z,2.60
2019-05-25T01:24:44.275Z,2.97
2019-05-25T01:27:11.379Z,3.40
2019-05-25T01:29:40.904Z,3.07
2019-05-25T01:32:10.482Z,3.03
2019-05-25T01:34:42.935Z,3.30
2019-05-25T01:37:12.448Z,3.30
2019-05-25T01:39:42.151Z,3.07
2019-05-25T01:42:11.707Z,3.77
2019-05-25T01:44:41.364Z,2.87
2019-05-25T01:47:10.965Z,2.30
2019-05-25T01:49:43.385Z,2.10
2019-05-25T01:52:15.655Z,2.40
2019-05-25T01:54:58.821Z,2.73
2019-05-25T01:57:16.971Z,3.10
2019-05-25T01:59:46.474Z,3.73
2019-05-25T02:02:16.089Z,2.60
2019-05-25T02:04:45.706Z,2.80
2019-05-25T02:07:15.240Z,2.70
2019-05-25T02:09:44.758Z,2.80
2019-05-25T02:12:14.305Z,2.70
2019-05-25T02:14:43.910Z,3.30
2019-05-25T02:17:13.418Z,2.87
2019-05-25T02:19:43.234Z,3.27
2019-05-25T02:22:12.775Z,3.60
2019-05-25T02:24:42.298Z,2.80
2019-05-25T02:27:11.940Z,2.70
2019-05-25T02:29:41.526Z,4.27
2019-05-25T02:32:12.620Z,4.00
2019-05-25T02:34:42.446Z,3.40
2019-05-25T02:37:12.054Z,3.37
2019-05-25T02:39:41.654Z,3.63
2019-05-25T02:42:12.506Z,2.90
2019-05-25T02:44:42.028Z,3.20
2019-05-25T02:47:11.688Z,3.60
2019-05-25T02:49:41.235Z,3.93
2019-05-25T02:52:10.780Z,3.90
2019-05-25T02:54:40.350Z,3.50
2019-05-25T02:57:09.955Z,3.03
2019-05-25T02:59:39.688Z,3.30
2019-05-25T03:02:09.250Z,3.50
2019-05-25T03:04:38.932Z,3.10
2019-05-25T03:07:08.502Z,3.60
2019-05-25T03:09:39.277Z,4.13
2019-05-25T03:12:09.367Z,4.47
2019-05-25T03:14:38.939Z,3.07
2019-05-25T03:17:08.661Z,3.30
2019-05-25T03:19:38.353Z,3.17
2019-05-25T03:22:07.951Z,3.60
2019-05-25T03:24:37.564Z,3.30
2019-05-25T03:27:07.236Z,3.30
2019-05-25T03:29:36.827Z,4.57
2019-05-25T03:32:06.419Z,3.90
2019-05-25T03:34:35.960Z,3.27
2019-05-25T03:37:05.462Z,3.70
2019-05-25T03:39:35.031Z,4.00
2019-05-25T03:42:04.766Z,3.53
2019-05-25T03:44:34.265Z,4.40
2019-05-25T03:47:03.915Z,3.87
2019-05-25T03:49:34.545Z,4.03
2019-05-25T03:52:04.142Z,4.13
2019-05-25T03:54:33.785Z,3.77
2019-05-25T03:57:03.877Z,4.27
2019-05-25T03:59:33.563Z,4.13
2019-05-25T04:02:03.277Z,4.13
2019-05-25T04:04:32.881Z,3.47
2019-05-25T04:07:02.454Z,4.53
2019-05-25T04:09:32.103Z,4.43
2019-05-25T04:12:02.031Z,3.43
2019-05-25T04:14:31.558Z,4.60
2019-05-25T04:17:01.080Z,4.17
2019-05-25T04:19:30.625Z,4.90
2019-05-25T04:22:00.197Z,4.13
2019-05-25T04:24:29.698Z,4.60
2019-05-25T04:26:59.240Z,4.20
2019-05-25T04:29:28.772Z,4.50
2019-05-25T04:31:58.276Z,4.40
2019-05-25T04:34:29.089Z,4.70
2019-05-25T04:36:58.680Z,4.60
2019-05-25T04:39:28.200Z,4.10
2019-05-25T04:41:57.811Z,4.53
2019-05-25T04:44:27.411Z,5.30
2019-05-25T04:46:56.923Z,4.73
2019-05-25T04:49:26.648Z,5.67
2019-05-25T04:51:56.164Z,5.40
2019-05-25T04:54:25.666Z,5.27
2019-05-25T04:56:56.912Z,5.67
2019-05-25T04:59:27.283Z,5.10
2019-05-25T05:01:56.813Z,4.80
2019-05-25T05:04:26.798Z,4.90
2019-05-25T05:06:56.298Z,4.30
2019-05-25T05:09:25.827Z,4.50
2019-05-25T05:11:55.386Z,5.23
2019-05-25T05:14:24.966Z,4.17
2019-05-25T05:16:54.777Z,4.50
2019-05-25T05:19:27.807Z,4.73
2019-05-25T05:21:57.325Z,4.93
2019-05-25T05:24:26.924Z,4.50
2019-05-25T05:26:56.642Z,4.13
2019-05-25T05:29:26.286Z,3.90
2019-05-25T05:31:55.880Z,4.43
2019-05-25T05:34:25.530Z,3.57
2019-05-25T05:36:55.680Z,3.73
2019-05-25T05:39:27.734Z,3.83
2019-05-25T05:41:59.628Z,4.13
2019-05-25T05:44:32.017Z,4.10
2019-05-25T05:47:03.154Z,4.13
2019-05-25T05:49:34.173Z,3.93
2019-05-25T05:52:03.903Z,3.63
2019-05-25T05:54:34.221Z,4.63
2019-05-25T05:57:12.429Z,3.90
2019-05-25T05:59:35.356Z,4.60
2019-05-25T06:02:05.366Z,3.70
2019-05-25T06:04:35.565Z,4.40
2019-05-25T06:07:05.263Z,3.60
2019-05-25T06:09:35.011Z,4.03
2019-05-25T06:12:05.864Z,4.00
2019-05-25T06:14:35.420Z,4.53
2019-05-25T06:17:05.212Z,3.83
2019-05-25T06:19:34.930Z,4.67
2019-05-25T06:22:04.972Z,4.10
2019-05-25T06:24:34.880Z,3.70
2019-05-25T06:27:04.610Z,3.30
2019-05-25T06:29:34.205Z,4.63
2019-05-25T06:32:04.245Z,3.97
2019-05-25T06:34:34.019Z,3.40
2019-05-25T06:37:03.559Z,4.10
2019-05-25T06:39:33.135Z,3.50
2019-05-25T06:42:02.866Z,3.47
2019-05-25T06:44:32.444Z,3.57
2019-05-25T06:47:02.023Z,5.00
2019-05-25T06:49:31.901Z,4.20
2019-05-25T06:52:01.440Z,4.80
2019-05-25T06:54:31.038Z,4.40
2019-05-25T06:57:01.206Z,4.83
2019-05-25T06:59:30.787Z,3.47
2019-05-25T07:02:00.365Z,4.20
2019-05-25T07:04:29.923Z,4.37
2019-05-25T07:06:59.433Z,4.20
2019-05-25T07:09:29.021Z,4.60
2019-05-25T07:11:58.547Z,3.63
2019-05-25T07:14:28.190Z,3.77
2019-05-25T07:16:57.702Z,4.40
2019-05-25T07:19:28.369Z,3.67
2019-05-25T07:21:57.940Z,3.83
2019-05-25T07:24:27.456Z,3.80
2019-05-25T07:26:57.009Z,3.93
2019-05-25T07:29:26.518Z,3.80
2019-05-25T07:31:56.192Z,3.73
2019-05-25T07:34:26.001Z,3.70
2019-05-25T07:36:55.577Z,4.00
2019-05-25T07:39:25.201Z,4.10
2019-05-25T07:41:54.804Z,4.00
2019-05-25T07:44:24.509Z,3.73
2019-05-25T07:46:54.077Z,3.30
2019-05-25T07:49:23.742Z,3.37
2019-05-25T07:51:53.338Z,4.90
2019-05-25T07:54:23.172Z,3.27
2019-05-25T07:56:52.800Z,3.70
2019-05-25T07:59:22.403Z,3.60
2019-05-25T08:01:51.902Z,3.50
2019-05-25T08:04:21.524Z,3.90
2019-05-25T08:06:51.911Z,4.20
2019-05-25T08:09:21.561Z,3.43
2019-05-25T08:11:51.673Z,3.63
2019-05-25T08:14:21.236Z,3.70
2019-05-25T08:16:50.885Z,3.60
2019-05-25T08:19:20.541Z,4.50
2019-05-25T08:21:50.152Z,3.60
2019-05-25T08:24:19.753Z,3.23
2019-05-25T08:26:49.764Z,3.07
2019-05-25T08:29:19.503Z,3.90
2019-05-25T08:31:49.043Z,3.33
2019-05-25T08:34:18.728Z,3.90
2019-05-25T08:36:48.257Z,3.30
2019-05-25T08:39:17.833Z,3.73
2019-05-25T08:41:47.620Z,3.13
2019-05-25T08:44:36.609Z,3.00
2019-05-25T08:47:06.522Z,3.50
2019-05-25T08:49:36.050Z,3.20
2019-05-25T08:52:05.924Z,3.00
2019-05-25T08:54:35.535Z,3.97
2019-05-25T08:57:05.299Z,3.07
2019-05-25T08:59:34.880Z,2.80
2019-05-25T09:02:04.668Z,3.10
2019-05-25T09:04:34.711Z,2.83
2019-05-25T09:07:04.513Z,3.10
2019-05-25T09:09:34.533Z,3.77
2019-05-25T09:12:04.263Z,3.80
2019-05-25T09:14:33.875Z,3.20
2019-05-25T09:17:03.527Z,3.60
2019-05-25T09:19:33.326Z,4.13
2019-05-25T09:22:03.953Z,3.40
2019-05-25T09:24:33.832Z,3.73
2019-05-25T09:27:03.473Z,3.70
2019-05-25T09:29:33.158Z,3.30
2019-05-25T09:32:02.874Z,3.03
2019-05-25T09:34:32.417Z,3.17
2019-05-25T09:37:01.900Z,2.87
2019-05-25T09:39:31.943Z,3.43
2019-05-25T09:42:01.816Z,3.73
2019-05-25T09:44:31.362Z,2.80
2019-05-25T09:47:00.907Z,3.40
2019-05-25T09:49:30.484Z,3.17
2019-05-25T09:51:59.983Z,2.97
2019-05-25T09:54:29.755Z,3.07
2019-05-25T09:56:59.280Z,3.20
2019-05-25T09:59:28.773Z,2.57
2019-05-25T10:01:58.317Z,3.07
2019-05-25T10:04:27.876Z,2.80
2019-05-25T10:06:57.500Z,3.40
2019-05-25T10:09:46.490Z,4.87
2019-05-25T10:12:16.462Z,2.93
2019-05-25T10:14:46.222Z,3.07
2019-05-25T10:17:15.759Z,2.90
2019-05-25T10:19:45.569Z,3.00
2019-05-25T10:22:15.270Z,2.80
2019-05-25T10:24:44.887Z,2.83
2019-05-25T10:27:14.463Z,2.40
2019-05-25T10:29:44.067Z,2.60
2019-05-25T10:32:14.025Z,2.80
2019-05-25T10:34:43.679Z,3.53
2019-05-25T10:37:13.220Z,3.33
2019-05-25T10:39:42.856Z,2.90
2019-05-25T10:42:12.443Z,3.10
2019-05-25T10:44:41.963Z,3.30
2019-05-25T10:47:11.503Z,4.10
2019-05-25T10:49:41.023Z,3.77
2019-05-25T10:52:10.544Z,3.80
2019-05-25T10:54:40.622Z,3.30
2019-05-25T10:57:13.116Z,3.40
2019-05-25T10:59:52.367Z,3.67
2019-05-25T11:02:12.705Z,4.00
2019-05-25T11:04:42.645Z,4.20
2019-05-25T11:07:12.150Z,3.90
2019-05-25T11:09:42.018Z,4.90
2019-05-25T11:12:11.708Z,4.00
2019-05-25T11:14:41.222Z,4.20
2019-05-25T11:17:10.879Z,3.47
2019-05-25T11:19:40.605Z,2.70
2019-05-25T11:22:12.487Z,3.10
2019-05-25T11:24:42.138Z,3.20
2019-05-25T11:27:11.808Z,3.50
2019-05-25T11:29:41.344Z,3.73
2019-05-25T11:32:11.258Z,3.00
2019-05-25T11:34:40.782Z,2.53
2019-05-25T11:37:10.952Z,3.20
2019-05-25T11:39:40.573Z,3.30
2019-05-25T11:42:10.212Z,2.50
2019-05-25T11:44:42.853Z,2.70
2019-05-25T11:47:13.105Z,2.93
2019-05-25T11:49:42.692Z,2.63
2019-05-25T11:52:12.375Z,3.57
2019-05-25T11:54:42.048Z,3.80
2019-05-25T11:57:11.698Z,3.80
2019-05-25T11:59:41.355Z,3.00
2019-05-25T12:02:11.075Z,2.87
2019-05-25T12:04:42.000Z,3.13
2019-05-25T12:07:12.127Z,3.93
2019-05-25T12:09:42.340Z,3.20
2019-05-25T12:12:12.074Z,3.30
2019-05-25T12:14:41.590Z,3.57
2019-05-25T12:17:11.325Z,3.50
2019-05-25T12:19:41.246Z,4.20
2019-05-25T12:22:10.906Z,4.17
2019-05-25T12:24:40.740Z,3.40
2019-05-25T12:27:10.405Z,4.43
2019-05-25T12:29:40.066Z,4.57
2019-05-25T12:32:09.850Z,4.20
2019-05-25T12:34:58.847Z,3.33
2019-05-25T12:37:28.508Z,3.60
2019-05-25T12:39:58.081Z,3.50
2019-05-25T12:42:27.684Z,2.87
2019-05-25T12:44:57.377Z,3.03
2019-05-25T12:47:27.039Z,3.30
2019-05-25T12:49:56.636Z,3.17
2019-05-25T12:52:26.547Z,3.20
2019-05-25T12:54:56.208Z,3.20
2019-05-25T12:57:26.080Z,3.37
2019-05-25T12:59:55.706Z,3.27
2019-05-25T13:02:25.285Z,3.20
2019-05-25T13:04:54.805Z,3.20
2019-05-25T13:07:24.438Z,3.70
2019-05-25T13:09:55.803Z,3.83
2019-05-25T13:12:25.519Z,4.03
2019-05-25T13:14:55.802Z,3.50
2019-05-25T13:17:25.346Z,3.23
2019-05-25T13:19:55.004Z,3.33
2019-05-25T13:22:24.581Z,3.20
2019-05-25T13:24:54.189Z,3.13
2019-05-25T13:27:23.855Z,2.77
2019-05-25T13:29:53.581Z,3.00
2019-05-25T13:32:23.171Z,2.70
2019-05-25T13:34:52.851Z,2.93
2019-05-25T13:37:22.815Z,2.90
2019-05-25T13:39:55.468Z,2.57
2019-05-25T13:42:25.140Z,2.90
2019-05-25T13:44:54.800Z,2.80
2019-05-25T13:47:24.459Z,2.53
2019-05-25T13:49:54.244Z,3.00
2019-05-25T13:52:24.309Z,2.80
2019-05-25T13:54:53.933Z,2.57
2019-05-25T13:57:23.736Z,2.80
2019-05-25T13:59:53.578Z,3.40
2019-05-25T14:02:23.442Z,3.20
2019-05-25T14:04:53.798Z,3.33
2019-05-25T14:07:23.433Z,3.20
2019-05-25T14:09:53.144Z,2.97
2019-05-25T14:12:23.510Z,3.00
2019-05-25T14:14:53.638Z,2.70
2019-05-25T14:17:23.393Z,2.80
2019-05-25T14:19:53.061Z,2.70
2019-05-25T14:22:22.768Z,2.60
2019-05-25T14:24:52.402Z,3.60
2019-05-25T14:27:22.209Z,2.20
2019-05-25T14:29:52.007Z,3.23
2019-05-25T14:32:21.747Z,2.53
2019-05-25T14:34:51.469Z,2.60
2019-05-25T14:37:21.373Z,3.17
2019-05-25T14:39:51.038Z,2.73
2019-05-25T14:42:20.804Z,2.70
2019-05-25T14:44:50.542Z,2.87
2019-05-25T14:47:21.465Z,3.03
2019-05-25T14:49:51.109Z,2.67
2019-05-25T14:52:20.836Z,2.60
2019-05-25T14:54:50.427Z,2.63
2019-05-25T14:57:20.369Z,2.53
2019-05-25T14:59:50.087Z,3.20
2019-05-25T15:02:19.741Z,3.73
2019-05-25T15:04:49.476Z,3.30
2019-05-25T15:07:19.331Z,3.50
2019-05-25T15:09:49.029Z,3.07
2019-05-25T15:12:20.468Z,3.73
2019-05-25T15:14:52.500Z,4.03
2019-05-25T15:17:22.137Z,4.30
2019-05-25T15:19:51.874Z,3.77
2019-05-25T15:22:21.492Z,3.93
2019-05-25T15:24:51.220Z,3.57
2019-05-25T15:27:20.997Z,4.30
2019-05-25T15:29:55.228Z,3.30
2019-05-25T15:32:28.000Z,3.80
2019-05-25T15:34:57.891Z,3.57
2019-05-25T15:37:27.534Z,3.40
2019-05-25T15:39:57.211Z,3.00
2019-05-25T15:42:26.876Z,3.03
2019-05-25T15:44:56.484Z,3.10
2019-05-25T15:47:45.663Z,2.93
2019-05-25T15:50:17.169Z,3.40
2019-05-25T15:52:46.820Z,2.77
2019-05-25T15:55:17.197Z,3.40
2019-05-25T15:57:46.776Z,3.47
2019-05-25T16:00:17.336Z,3.30
2019-05-25T16:02:47.214Z,3.23
2019-05-25T16:05:18.071Z,3.47
2019-05-25T16:07:51.505Z,3.30
2019-05-25T16:10:24.571Z,4.13
2019-05-25T16:12:53.869Z,3.00
2019-05-25T16:15:29.687Z,3.20
2019-05-25T16:17:59.528Z,3.17
2019-05-25T16:20:29.169Z,3.50
2019-05-25T16:22:58.729Z,4.37
2019-05-25T16:25:28.558Z,5.67
2019-05-25T16:27:58.064Z,3.77
2019-05-25T16:30:31.341Z,3.20
2019-05-25T16:35:31.682Z,3.40
2019-05-25T16:38:01.779Z,3.90
2019-05-25T16:38:21.036Z,4.97
2019-05-25T16:40:31.605Z,4.57
2019-05-25T16:43:01.943Z,4.00
2019-05-25T16:45:32.382Z,4.70
2019-05-25T16:48:01.910Z,3.60
2019-05-25T16:50:31.637Z,3.27
2019-05-25T16:53:02.822Z,3.60
2019-05-25T16:55:34.041Z,3.43
2019-05-25T16:58:03.623Z,3.73
2019-05-25T17:00:36.545Z,3.50
2019-05-25T17:03:06.205Z,3.87
2019-05-25T17:05:37.649Z,3.90
2019-05-25T17:08:07.307Z,3.87
2019-05-25T17:10:36.888Z,4.90
2019-05-25T17:13:06.576Z,4.60
2019-05-25T17:15:39.792Z,3.00
2019-05-25T17:18:09.446Z,3.60
2019-05-25T17:20:39.251Z,3.93
2019-05-25T17:23:08.912Z,4.10
2019-05-25T17:25:38.479Z,4.43
2019-05-25T17:28:08.220Z,3.57
2019-05-25T17:30:48.788Z,3.27
2019-05-25T17:33:18.391Z,3.70
2019-05-25T17:35:48.140Z,4.27
2019-05-25T17:38:17.821Z,4.90
2019-05-25T17:40:47.759Z,4.90
2019-05-25T17:43:17.433Z,3.93
2019-05-25T17:45:47.154Z,3.17
2019-05-25T17:48:18.438Z,3.23
2019-05-25T17:50:48.332Z,3.90
2019-05-25T17:53:17.935Z,2.90
2019-05-25T17:55:47.588Z,3.70
2019-05-25T17:58:17.895Z,3.20
2019-05-25T18:00:49.770Z,4.73
2019-05-25T18:03:19.598Z,3.37
2019-05-25T18:05:51.363Z,3.30
2019-05-25T18:08:21.784Z,4.97
2019-05-25T18:10:54.014Z,4.80
2019-05-25T18:13:24.322Z,3.03
2019-05-25T18:15:53.916Z,3.50
2019-05-25T18:18:23.748Z,3.20
2019-05-25T18:20:53.779Z,3.77
2019-05-25T18:23:23.438Z,3.90
2019-05-25T18:25:53.101Z,2.93
2019-05-25T18:28:23.171Z,3.50
2019-05-25T18:30:52.771Z,3.07
2019-05-25T18:33:22.688Z,3.90
2019-05-25T18:35:52.631Z,3.70
2019-05-25T18:38:22.387Z,3.20
2019-05-25T18:40:52.018Z,3.30
2019-05-25T18:43:22.294Z,3.50
2019-05-25T18:45:51.835Z,3.57
2019-05-25T18:48:21.438Z,3.13
2019-05-25T18:50:51.289Z,3.37
2019-05-25T18:53:20.888Z,3.37
2019-05-25T18:55:50.455Z,5.33
2019-05-25T18:58:20.094Z,3.43
2019-05-25T19:00:49.838Z,3.07
2019-05-25T19:03:19.385Z,3.07
2019-05-25T19:05:49.540Z,3.43
2019-05-25T19:08:19.325Z,2.93
2019-05-25T19:10:49.069Z,3.67
2019-05-25T19:13:18.873Z,2.87
2019-05-25T19:15:48.587Z,3.67
2019-05-25T19:18:19.784Z,4.10
2019-05-25T19:20:49.422Z,3.73
2019-05-25T19:23:19.018Z,3.60
2019-05-25T19:25:48.642Z,3.80
2019-05-25T19:28:20.716Z,3.60
2019-05-25T19:30:50.504Z,3.30
2019-05-25T19:33:20.112Z,4.07
2019-05-25T19:35:49.953Z,4.00
2019-05-25T19:38:19.593Z,3.70
2019-05-25T19:40:52.285Z,3.90
2019-05-25T19:43:23.696Z,3.90
2019-05-25T19:45:53.590Z,4.20
2019-05-25T19:48:23.200Z,3.57
2019-05-25T19:50:56.429Z,3.83
2019-05-25T19:53:26.337Z,3.77
2019-05-25T19:55:55.914Z,3.60
2019-05-25T19:58:27.001Z,3.80
2019-05-25T20:00:56.782Z,4.00
2019-05-25T20:03:26.406Z,3.67
2019-05-25T20:05:59.169Z,3.83
2019-05-25T20:08:29.140Z,5.00
2019-05-25T20:11:01.113Z,4.80
2019-05-25T20:13:33.527Z,3.50
2019-05-25T20:16:04.023Z,5.17
2019-05-25T20:18:33.718Z,4.77
2019-05-25T20:21:03.484Z,4.80
2019-05-25T20:23:52.437Z,4.70
2019-05-25T20:26:22.053Z,4.87
2019-05-25T20:28:51.655Z,4.70
2019-05-25T20:31:21.175Z,3.83
2019-05-25T20:33:52.891Z,4.90
2019-05-25T20:36:22.553Z,4.37
2019-05-25T20:38:52.177Z,4.60
2019-05-25T20:41:23.352Z,4.53
2019-05-25T20:43:53.020Z,4.60
2019-05-25T20:46:22.635Z,5.20
2019-05-25T20:48:52.842Z,5.17
2019-05-25T20:51:22.386Z,4.80
2019-05-25T20:53:51.976Z,4.20
2019-05-25T20:56:21.645Z,4.20
2019-05-25T20:58:51.225Z,4.60
2019-05-25T21:01:20.798Z,5.00
2019-05-25T21:03:50.423Z,5.00
2019-05-25T21:06:20.085Z,5.13
2019-05-25T21:08:49.697Z,4.40
2019-05-25T21:11:19.860Z,4.87
2019-05-25T21:13:49.891Z,4.80
2019-05-25T21:16:19.629Z,5.23
2019-05-25T21:18:50.592Z,5.77
2019-05-25T21:21:20.199Z,4.70
2019-05-25T21:23:49.777Z,5.10
2019-05-25T21:26:19.383Z,5.33
2019-05-25T21:28:49.364Z,4.97
2019-05-25T21:31:19.246Z,4.53
2019-05-25T21:33:50.108Z,5.33
2019-05-25T21:36:22.894Z,4.33
2019-05-25T21:38:52.510Z,5.20
2019-05-25T21:41:22.287Z,4.60
2019-05-25T21:43:52.133Z,4.60
2019-05-25T21:46:22.297Z,4.40
2019-05-25T21:48:54.790Z,4.87
2019-05-25T21:51:24.610Z,5.10
2019-05-25T21:53:54.124Z,5.13
2019-05-25T21:56:23.787Z,5.23
2019-05-25T21:58:53.401Z,5.33
2019-05-25T22:01:23.569Z,5.40
2019-05-25T22:03:53.246Z,5.70
2019-05-25T22:06:24.570Z,5.80
2019-05-25T22:08:54.245Z,5.83
2019-05-25T22:11:24.063Z,6.27
2019-05-25T22:13:55.414Z,6.60
2019-05-25T22:16:26.802Z,6.27
2019-05-25T22:18:56.456Z,7.20
2019-05-25T22:21:27.234Z,6.50
2019-05-25T22:23:56.841Z,6.63
2019-05-25T22:26:28.526Z,7.07
2019-05-25T22:28:58.139Z,6.50
2019-05-25T22:31:27.742Z,6.90
2019-05-25T22:33:59.374Z,6.60
2019-05-25T22:36:40.429Z,7.43
2019-05-25T22:39:08.730Z,6.83
2019-05-25T22:41:38.429Z,6.27
2019-05-25T22:44:08.222Z,7.43
2019-05-25T22:46:37.903Z,7.90
2019-05-25T22:49:07.453Z,6.73
2019-05-25T22:51:36.966Z,7.80
2019-05-25T22:54:06.665Z,7.80
2019-05-25T22:56:36.258Z,7.40
2019-05-25T22:59:05.832Z,6.97
2019-05-25T23:01:35.474Z,7.00
2019-05-25T23:04:05.060Z,8.60
2019-05-25T23:06:34.716Z,7.23
2019-05-25T23:09:07.210Z,7.50
2019-05-25T23:11:36.826Z,7.67
2019-05-25T23:14:09.690Z,8.53
2019-05-25T23:16:37.893Z,8.10
2019-05-25T23:19:07.466Z,7.40
2019-05-25T23:21:37.064Z,7.67
2019-05-25T23:24:06.707Z,8.00
2019-05-25T23:26:36.295Z,7.80
2019-05-25T23:29:05.960Z,7.67
2019-05-25T23:31:35.972Z,7.70
2019-05-25T23:34:05.625Z,7.73
2019-05-25T23:36:35.211Z,7.07
2019-05-25T23:39:06.433Z,7.43
2019-05-25T23:41:36.510Z,7.40
2019-05-25T23:44:06.089Z,7.73
2019-05-25T23:46:35.739Z,7.13
2019-05-25T23:49:05.315Z,7.13
2019-05-25T23:51:34.904Z,6.43
2019-05-25T23:54:04.740Z,6.00
2019-05-25T23:56:35.916Z,6.83
2019-05-25T23:59:05.429Z,7.30
